Etusivu
METAR-TAF:

METAR-TAF

Lentoasemat :

Caracas, Venezuela

Leveyspiiri: 10-36N, Pituuspiiri: 066-59W, korkeus merenpinnasta: 43 m

Tämänhetkinen sää

Tämä raportti tehtiin 18 tuntia ja 9 minuuttia sitten, kello 15.00 UTC
Tuuli 5 kn koillisesta
Lämpötila 28°C
Kosteus 74%
Ilmanpaine 1016 hPa
Näkyvyys 10 km tai enemmän
Muutamia pilviä 1600 ft:n korkeudessa

METAR: SVMI 201500Z 05005KT 9999 FEW016 28/23 Q1016

Aika: 05:09 (09:09 UTC)

Sääennuste

Tämä raportti tehtiin 23 tuntia ja 9 minuuttia sitten, kello 10.00 UTC
Ennuste voimassa 20. päivästä klo 12 UTC - 21. päivään klo 12 UTC
Tuuli 10 kn idästä
Näkyvyys 10 km tai enemmän
Hajanaisia pilviä 1300 ft:n korkeudessa
Tulossa
20. päivästä klo 12 UTC - 20. päivään klo 16 UTC
Tuuli 10 kn idästä

TAF: SVMI 201000Z 2012/2112 09010KT 9999 SCT013 TX32/18Z TN24/09Z BECMG 2012/2016 08010KT

Säähavainnot ja -ennusteet yli 4000 lentoasemalta (METAR- ja TAF-raportit).

Käytössä olevat sääasemat on merkitty karttaan keltaisilla ja punaisilla pisteillä.

Aseta hiiri pisteen päälle nähdäksesi sääaseman nimen.

Klikkaa sitten nähdäksesi säähavainnot ja -ennusteet.

Kartan vaihtaminen: klikkaa mustalla rastilla varustettuja vihreitä pisteitä, niin voit zoomata sisään; viivalla varustettua vihreää pistettä, niin voit zoomata ulos tai vihreitä nuolia, niin pääset viereisille kartoille.


METAR-TAF: